createdAt,value
2017-08-14T00:00:13.594Z,15.20
2017-08-14T00:02:41.741Z,15.20
2017-08-14T00:05:10.669Z,15.20
2017-08-14T00:07:38.863Z,15.20
2017-08-14T00:10:07.034Z,15.20
2017-08-14T00:12:38.554Z,15.10
2017-08-14T00:15:06.779Z,15.10
2017-08-14T00:17:34.922Z,15.10
2017-08-14T00:20:03.074Z,15.00
2017-08-14T00:22:31.245Z,15.00
2017-08-14T00:25:00.182Z,15.00
2017-08-14T00:27:28.567Z,15.00
2017-08-14T00:29:56.773Z,15.00
2017-08-14T00:32:24.935Z,15.00
2017-08-14T00:34:53.091Z,15.00
2017-08-14T00:37:21.288Z,15.00
2017-08-14T00:39:49.437Z,14.90
2017-08-14T00:42:17.590Z,14.80
2017-08-14T00:44:45.762Z,14.80
2017-08-14T00:47:13.930Z,14.80
2017-08-14T00:49:42.092Z,14.80
2017-08-14T00:52:11.338Z,14.80
2017-08-14T00:54:39.482Z,14.80
2017-08-14T00:57:07.631Z,14.80
2017-08-14T00:59:35.830Z,14.80
2017-08-14T01:02:03.997Z,14.70
2017-08-14T01:04:32.157Z,14.70
2017-08-14T01:07:01.095Z,14.70
2017-08-14T01:09:29.257Z,14.70
2017-08-14T01:11:57.402Z,14.70
2017-08-14T01:14:25.795Z,14.70
2017-08-14T01:16:53.949Z,14.60
2017-08-14T01:19:22.877Z,14.50
2017-08-14T01:21:51.069Z,14.50
2017-08-14T01:24:19.234Z,14.50
2017-08-14T01:26:47.374Z,14.50
2017-08-14T01:29:16.309Z,14.40
2017-08-14T01:31:44.450Z,14.40
2017-08-14T01:34:12.596Z,14.40
2017-08-14T01:36:41.541Z,14.30
2017-08-14T01:39:09.684Z,14.30
2017-08-14T01:41:37.835Z,14.30
2017-08-14T01:44:06.803Z,14.30
2017-08-14T01:46:34.964Z,14.30
2017-08-14T01:49:03.135Z,14.30
2017-08-14T01:51:31.319Z,14.30
2017-08-14T01:53:59.457Z,14.30
2017-08-14T01:56:27.602Z,14.30
2017-08-14T01:58:56.558Z,14.20
2017-08-14T02:01:24.697Z,14.20
2017-08-14T02:03:52.839Z,14.20
2017-08-14T02:06:21.030Z,14.10
2017-08-14T02:08:49.948Z,14.10
2017-08-14T02:11:18.097Z,14.10
2017-08-14T02:13:46.287Z,14.10
2017-08-14T02:16:14.453Z,14.00
2017-08-14T02:18:42.602Z,14.00
2017-08-14T02:21:10.796Z,13.90
2017-08-14T02:23:38.969Z,14.00
2017-08-14T02:26:07.126Z,14.00
2017-08-14T02:28:35.671Z,14.10
2017-08-14T02:31:03.816Z,14.00
2017-08-14T02:33:31.980Z,13.90
2017-08-14T02:36:00.155Z,13.80
2017-08-14T02:38:28.325Z,13.90
2017-08-14T02:40:57.257Z,13.90
2017-08-14T02:43:25.427Z,13.90
2017-08-14T02:45:53.589Z,13.90
2017-08-14T02:48:21.757Z,13.80
2017-08-14T02:50:49.956Z,13.80
2017-08-14T02:53:18.125Z,13.90
2017-08-14T02:55:46.274Z,13.80
2017-08-14T02:58:14.453Z,13.80
2017-08-14T03:00:42.601Z,13.80
2017-08-14T03:03:11.866Z,13.70
2017-08-14T03:05:40.052Z,13.70
2017-08-14T03:08:08.217Z,13.70
2017-08-14T03:10:36.387Z,13.70
2017-08-14T03:13:04.565Z,13.70
2017-08-14T03:15:32.724Z,13.60
2017-08-14T03:18:01.735Z,13.60
2017-08-14T03:20:29.928Z,13.50
2017-08-14T03:22:58.093Z,13.50
2017-08-14T03:25:26.272Z,13.50
2017-08-14T03:27:54.450Z,13.50
2017-08-14T03:30:22.619Z,13.60
2017-08-14T03:32:51.554Z,13.60
2017-08-14T03:35:19.736Z,13.60
2017-08-14T03:37:47.878Z,13.50
2017-08-14T03:40:16.814Z,13.50
2017-08-14T03:42:45.002Z,13.50
2017-08-14T03:45:13.145Z,13.50
2017-08-14T03:47:41.307Z,13.50
2017-08-14T03:50:10.255Z,13.50
2017-08-14T03:52:38.426Z,13.50
2017-08-14T03:55:06.602Z,13.50
2017-08-14T03:57:34.789Z,13.40
2017-08-14T04:00:02.939Z,13.40
2017-08-14T04:02:31.106Z,13.40
2017-08-14T04:04:59.293Z,13.40
2017-08-14T04:07:27.445Z,13.40
2017-08-14T04:09:55.610Z,13.40
2017-08-14T04:12:23.789Z,13.40
2017-08-14T04:14:52.209Z,13.40
2017-08-14T04:17:20.399Z,13.40
2017-08-14T04:19:48.581Z,13.40
2017-08-14T04:22:16.741Z,13.50
2017-08-14T04:24:44.882Z,13.50
2017-08-14T04:27:13.056Z,13.50
2017-08-14T04:29:41.211Z,13.50
2017-08-14T04:32:09.365Z,13.50
2017-08-14T04:34:38.312Z,13.50
2017-08-14T04:37:06.483Z,13.50
2017-08-14T04:39:34.883Z,13.50
2017-08-14T04:42:03.076Z,13.50
2017-08-14T04:44:31.221Z,13.60
2017-08-14T04:47:00.138Z,13.70
2017-08-14T04:49:28.330Z,13.60
2017-08-14T04:51:56.475Z,13.70
2017-08-14T04:54:24.626Z,13.70
2017-08-14T04:56:53.587Z,13.60
2017-08-14T04:59:21.738Z,13.60
2017-08-14T05:01:49.878Z,13.60
2017-08-14T05:04:18.066Z,13.70
2017-08-14T05:06:46.237Z,13.70
2017-08-14T05:09:14.418Z,13.80
2017-08-14T05:11:43.945Z,13.90
2017-08-14T05:14:12.114Z,13.90
2017-08-14T05:16:40.264Z,14.00
2017-08-14T05:19:09.232Z,14.20
2017-08-14T05:21:37.399Z,14.20
2017-08-14T05:24:05.541Z,14.30
2017-08-14T05:26:33.737Z,14.30
2017-08-14T05:29:01.900Z,14.40
2017-08-14T05:31:30.052Z,14.50
2017-08-14T05:33:58.248Z,14.60
2017-08-14T05:36:26.402Z,14.80
2017-08-14T05:38:54.546Z,14.90
2017-08-14T05:41:22.739Z,15.00
2017-08-14T05:43:51.674Z,15.20
2017-08-14T05:46:19.842Z,15.20
2017-08-14T05:48:48.030Z,15.30
2017-08-14T05:51:16.179Z,15.50
2017-08-14T05:53:44.325Z,15.50
2017-08-14T05:56:13.282Z,15.70
2017-08-14T05:58:41.433Z,15.70
2017-08-14T06:01:09.586Z,15.80
2017-08-14T06:03:37.757Z,16.00
2017-08-14T06:06:05.920Z,16.10
2017-08-14T06:08:34.827Z,16.30
2017-08-14T06:11:03.017Z,16.30
2017-08-14T06:13:31.182Z,16.40
2017-08-14T06:15:59.324Z,16.50
2017-08-14T06:18:28.285Z,16.70
2017-08-14T06:20:56.454Z,16.70
2017-08-14T06:23:24.607Z,16.80
2017-08-14T06:25:52.786Z,17.00
2017-08-14T06:28:20.948Z,17.00
2017-08-14T06:30:49.096Z,17.20
2017-08-14T06:33:18.347Z,17.40
2017-08-14T06:35:46.488Z,17.40
2017-08-14T06:38:14.629Z,17.50
2017-08-14T06:40:43.598Z,17.80
2017-08-14T06:43:11.742Z,17.80
2017-08-14T06:45:39.909Z,18.00
2017-08-14T06:48:08.100Z,18.10
2017-08-14T06:50:36.247Z,18.20
2017-08-14T06:53:04.411Z,18.20
2017-08-14T06:55:32.590Z,18.30
2017-08-14T06:58:01.520Z,18.70
2017-08-14T07:00:29.662Z,18.70
2017-08-14T07:02:57.842Z,18.90
2017-08-14T07:05:26.007Z,19.00
2017-08-14T07:07:54.168Z,19.20
2017-08-14T07:10:23.129Z,19.10
2017-08-14T07:12:51.277Z,19.10
2017-08-14T07:15:19.427Z,19.20
2017-08-14T07:17:47.615Z,19.40
2017-08-14T07:20:15.789Z,19.50
2017-08-14T07:22:43.935Z,19.60
2017-08-14T07:25:12.874Z,19.80
2017-08-14T07:27:41.045Z,19.80
2017-08-14T07:30:09.208Z,20.00
2017-08-14T07:32:37.714Z,20.10
2017-08-14T07:35:05.877Z,20.10
2017-08-14T07:37:34.021Z,20.20
2017-08-14T07:40:02.256Z,20.40
2017-08-14T07:42:30.403Z,20.50
2017-08-14T07:44:58.571Z,20.50
2017-08-14T07:47:26.765Z,20.40
2017-08-14T07:49:54.944Z,20.30
2017-08-14T07:52:23.107Z,20.30
2017-08-14T07:54:51.301Z,20.40
2017-08-14T07:57:19.470Z,20.40
2017-08-14T07:59:47.696Z,20.70
2017-08-14T08:02:15.874Z,21.10
2017-08-14T08:04:44.045Z,21.50
2017-08-14T08:07:12.205Z,22.00
2017-08-14T08:09:41.149Z,23.20
2017-08-14T08:12:09.299Z,23.20
2017-08-14T08:14:37.469Z,23.90
2017-08-14T08:17:05.660Z,24.30
2017-08-14T08:19:33.806Z,24.70
2017-08-14T08:22:01.953Z,25.40
2017-08-14T08:24:30.130Z,25.50
2017-08-14T08:26:59.073Z,27.70
2017-08-14T08:29:27.236Z,27.70
2017-08-14T08:31:55.441Z,28.10
2017-08-14T08:34:23.596Z,28.90
2017-08-14T08:36:51.766Z,28.50
2017-08-14T08:39:19.944Z,27.80
2017-08-14T08:41:48.098Z,28.70
2017-08-14T08:44:16.250Z,29.10
2017-08-14T08:46:44.459Z,28.80
2017-08-14T08:49:12.629Z,28.10
2017-08-14T08:51:40.799Z,28.30
2017-08-14T08:54:09.005Z,29.90
2017-08-14T08:56:37.181Z,31.10
2017-08-14T08:59:05.326Z,32.00
2017-08-14T09:01:33.525Z,32.70
2017-08-14T09:04:01.674Z,33.40
2017-08-14T09:06:29.819Z,32.50
2017-08-14T09:08:58.762Z,30.10
2017-08-14T09:11:26.916Z,30.10
2017-08-14T09:13:55.064Z,31.20
2017-08-14T09:16:24.020Z,32.30
2017-08-14T09:18:52.196Z,32.30
2017-08-14T09:21:20.354Z,32.20
2017-08-14T09:23:48.543Z,33.10
2017-08-14T09:26:16.691Z,33.50
2017-08-14T09:28:44.886Z,34.00
2017-08-14T09:31:13.076Z,34.20
2017-08-14T09:33:41.241Z,33.70
2017-08-14T09:36:09.404Z,34.60
2017-08-14T09:38:37.599Z,34.50
2017-08-14T09:41:05.772Z,34.80
2017-08-14T09:43:33.939Z,35.30
2017-08-14T09:46:02.152Z,35.90
2017-08-14T09:48:31.071Z,36.50
2017-08-14T09:50:59.242Z,36.50
2017-08-14T09:53:27.442Z,35.20
2017-08-14T09:55:55.586Z,34.70
2017-08-14T09:58:23.735Z,35.90
2017-08-14T10:00:51.924Z,37.10
2017-08-14T10:03:20.857Z,36.40
2017-08-14T10:05:49.030Z,36.40
2017-08-14T10:08:17.203Z,36.30
2017-08-14T10:10:45.343Z,36.60
2017-08-14T10:13:14.256Z,37.60
2017-08-14T10:15:42.429Z,37.60
2017-08-14T10:18:10.575Z,36.80
2017-08-14T10:20:39.493Z,37.00
2017-08-14T10:23:07.698Z,36.90
2017-08-14T10:25:35.882Z,37.30
2017-08-14T10:28:04.034Z,37.60
2017-08-14T10:30:32.237Z,38.40
2017-08-14T10:33:00.402Z,37.90
2017-08-14T10:35:28.573Z,38.40
2017-08-14T10:37:56.765Z,37.90
2017-08-14T10:40:24.929Z,38.80
2017-08-14T10:42:53.405Z,38.60
2017-08-14T10:45:21.584Z,38.50
2017-08-14T10:47:49.725Z,36.70
2017-08-14T10:50:17.882Z,38.30
2017-08-14T10:52:46.073Z,40.00
2017-08-14T10:55:14.240Z,41.20
2017-08-14T10:57:42.520Z,42.00
2017-08-14T11:00:10.708Z,41.80
2017-08-14T11:02:38.872Z,41.90
2017-08-14T11:05:07.021Z,40.80
2017-08-14T11:07:35.981Z,41.00
2017-08-14T11:10:04.142Z,41.00
2017-08-14T11:12:32.307Z,40.90
2017-08-14T11:15:00.510Z,40.80
2017-08-14T11:17:28.654Z,40.60
2017-08-14T11:19:56.802Z,39.60
2017-08-14T11:22:24.982Z,39.40
2017-08-14T11:24:53.346Z,39.40
2017-08-14T11:27:22.249Z,39.50
2017-08-14T11:29:50.420Z,39.50
2017-08-14T11:32:18.561Z,39.60
2017-08-14T11:34:46.721Z,40.50
2017-08-14T11:37:14.928Z,41.40
2017-08-14T11:39:43.842Z,42.70
2017-08-14T11:42:12.003Z,42.60
2017-08-14T11:44:40.182Z,44.30
2017-08-14T11:47:08.322Z,45.50
2017-08-14T11:49:36.462Z,45.20
2017-08-14T11:52:04.649Z,43.80
2017-08-14T11:54:32.821Z,40.70
2017-08-14T11:57:00.962Z,40.00
2017-08-14T11:59:29.157Z,38.90
2017-08-14T12:01:57.308Z,38.10
2017-08-14T12:04:25.451Z,38.10
2017-08-14T12:06:54.553Z,38.30
2017-08-14T12:09:23.470Z,38.00
2017-08-14T12:11:51.614Z,37.90
2017-08-14T12:14:20.578Z,36.50
2017-08-14T12:16:48.746Z,36.50
2017-08-14T12:19:16.893Z,34.90
2017-08-14T12:21:45.087Z,34.20
2017-08-14T12:24:13.230Z,33.70
2017-08-14T12:26:41.384Z,33.20
2017-08-14T12:29:09.565Z,31.80
2017-08-14T12:31:37.711Z,30.50
2017-08-14T12:34:05.883Z,29.70
2017-08-14T12:36:34.059Z,29.60
2017-08-14T12:39:02.225Z,29.40
2017-08-14T12:41:30.379Z,29.20
2017-08-14T12:43:58.562Z,28.80
2017-08-14T12:46:26.729Z,28.10
2017-08-14T12:48:54.900Z,27.80
2017-08-14T12:51:23.107Z,27.60
2017-08-14T12:53:51.284Z,27.60
2017-08-14T12:56:19.435Z,27.60
2017-08-14T12:58:47.651Z,28.00
2017-08-14T13:01:15.835Z,27.60
2017-08-14T13:03:43.998Z,27.10
2017-08-14T13:06:12.950Z,27.50
2017-08-14T13:08:41.105Z,27.50
2017-08-14T13:11:09.507Z,27.70
2017-08-14T13:13:37.705Z,27.70
2017-08-14T13:16:06.178Z,27.60
2017-08-14T13:18:34.349Z,27.20
2017-08-14T13:21:02.553Z,27.20
2017-08-14T13:23:31.498Z,26.70
2017-08-14T13:25:59.665Z,26.60
2017-08-14T13:28:27.858Z,26.40
2017-08-14T13:30:56.007Z,26.40
2017-08-14T13:33:24.171Z,26.50
2017-08-14T13:35:52.346Z,26.50
2017-08-14T13:38:20.522Z,26.30
2017-08-14T13:40:48.694Z,26.30
2017-08-14T13:43:16.900Z,26.30
2017-08-14T13:45:45.072Z,26.20
2017-08-14T13:48:13.225Z,26.30
2017-08-14T13:50:41.399Z,26.40
2017-08-14T13:53:09.552Z,26.40
2017-08-14T13:55:37.707Z,26.10
2017-08-14T13:58:06.652Z,25.90
2017-08-14T14:00:34.820Z,25.90
2017-08-14T14:03:03.220Z,25.80
2017-08-14T14:05:31.403Z,25.90
2017-08-14T14:07:59.584Z,26.00
2017-08-14T14:10:27.758Z,25.80
2017-08-14T14:12:55.970Z,25.80
2017-08-14T14:15:24.141Z,25.60
2017-08-14T14:17:53.081Z,25.30
2017-08-14T14:20:21.280Z,25.20
2017-08-14T14:22:49.438Z,25.20
2017-08-14T14:25:17.590Z,25.10
2017-08-14T14:27:45.793Z,25.30
2017-08-14T14:30:13.939Z,25.30
2017-08-14T14:32:42.105Z,25.20
2017-08-14T14:35:10.282Z,25.20
2017-08-14T14:37:38.434Z,25.20
2017-08-14T14:40:07.376Z,25.20
2017-08-14T14:42:35.550Z,25.20
2017-08-14T14:45:03.717Z,25.20
2017-08-14T14:47:34.962Z,25.10
2017-08-14T14:50:03.161Z,25.00
2017-08-14T14:52:31.341Z,25.00
2017-08-14T14:54:59.509Z,25.00
2017-08-14T14:57:28.105Z,24.90
2017-08-14T14:59:56.389Z,25.00
2017-08-14T15:02:24.547Z,25.10
2017-08-14T15:04:52.728Z,25.20
2017-08-14T15:07:20.874Z,25.20
2017-08-14T15:09:49.040Z,25.20
2017-08-14T15:12:17.267Z,25.20
2017-08-14T15:14:46.204Z,25.30
2017-08-14T15:17:14.379Z,25.20
2017-08-14T15:19:42.553Z,25.20
2017-08-14T15:22:10.717Z,25.00
2017-08-14T15:24:38.869Z,24.80
2017-08-14T15:27:07.068Z,24.70
2017-08-14T15:29:35.213Z,24.70
2017-08-14T15:32:03.366Z,24.60
2017-08-14T15:34:31.562Z,24.60
2017-08-14T15:37:00.478Z,24.70
2017-08-14T15:39:28.644Z,24.60
2017-08-14T15:41:56.818Z,24.60
2017-08-14T15:44:24.984Z,24.60
2017-08-14T15:46:53.138Z,24.60
2017-08-14T15:49:22.087Z,24.60
2017-08-14T15:51:50.234Z,24.50
2017-08-14T15:54:18.405Z,24.50
2017-08-14T15:56:46.580Z,24.50
2017-08-14T15:59:14.745Z,24.50
2017-08-14T16:01:42.920Z,24.30
2017-08-14T16:04:11.117Z,24.30
2017-08-14T16:06:39.273Z,24.30
2017-08-14T16:09:07.421Z,24.20
2017-08-14T16:11:35.598Z,24.20
2017-08-14T16:14:04.517Z,24.30
2017-08-14T16:16:32.681Z,24.30
2017-08-14T16:19:00.854Z,24.30
2017-08-14T16:21:29.790Z,24.20
2017-08-14T16:23:57.939Z,24.20
2017-08-14T16:26:26.110Z,24.10
2017-08-14T16:28:54.255Z,24.10
2017-08-14T16:31:23.189Z,24.10
2017-08-14T16:33:51.382Z,24.10
2017-08-14T16:36:19.550Z,24.10
2017-08-14T16:38:47.697Z,24.10
2017-08-14T16:41:15.872Z,24.10
2017-08-14T16:43:44.037Z,24.00
2017-08-14T16:46:12.206Z,24.00
2017-08-14T16:48:41.157Z,24.00
2017-08-14T16:51:09.302Z,23.90
2017-08-14T16:53:37.446Z,24.00
2017-08-14T16:56:06.395Z,24.00
2017-08-14T16:58:34.584Z,23.90
2017-08-14T17:01:02.754Z,24.00
2017-08-14T17:03:30.930Z,24.00
2017-08-14T17:05:59.105Z,24.00
2017-08-14T17:08:27.276Z,24.20
2017-08-14T17:10:55.450Z,24.00
2017-08-14T17:13:23.617Z,23.90
2017-08-14T17:15:51.781Z,23.80
2017-08-14T17:18:19.959Z,23.80
2017-08-14T17:20:48.131Z,23.70
2017-08-14T17:23:16.298Z,23.70
2017-08-14T17:25:44.808Z,23.80
2017-08-14T17:28:12.988Z,23.80
2017-08-14T17:30:41.133Z,23.70
2017-08-14T17:33:09.305Z,23.70
2017-08-14T17:35:37.452Z,23.60
2017-08-14T17:38:05.602Z,23.70
2017-08-14T17:40:34.562Z,23.70
2017-08-14T17:43:02.720Z,23.70
2017-08-14T17:45:30.921Z,23.70
2017-08-14T17:47:59.096Z,23.60
2017-08-14T17:50:27.246Z,23.50
2017-08-14T17:52:55.393Z,23.50
2017-08-14T17:55:23.587Z,23.50
2017-08-14T17:57:51.739Z,23.50
2017-08-14T18:00:19.899Z,23.50
2017-08-14T18:02:48.857Z,23.40
2017-08-14T18:05:17.018Z,23.40
2017-08-14T18:07:45.183Z,23.30
2017-08-14T18:10:13.363Z,23.30
2017-08-14T18:12:41.533Z,23.30
2017-08-14T18:15:10.503Z,23.20
2017-08-14T18:17:38.679Z,23.30
2017-08-14T18:20:06.829Z,23.20
2017-08-14T18:22:35.777Z,23.10
2017-08-14T18:25:03.947Z,23.10
2017-08-14T18:27:32.091Z,23.10
2017-08-14T18:30:00.254Z,23.00
2017-08-14T18:32:28.430Z,22.90
2017-08-14T18:34:56.579Z,22.90
2017-08-14T18:37:25.504Z,22.80
2017-08-14T18:39:53.697Z,22.70
2017-08-14T18:42:21.851Z,22.70
2017-08-14T18:44:50.004Z,22.70
2017-08-14T18:47:18.962Z,22.60
2017-08-14T18:49:47.109Z,22.50
2017-08-14T18:52:15.276Z,22.50
2017-08-14T18:54:43.459Z,22.50
2017-08-14T18:57:11.635Z,22.50
2017-08-14T18:59:39.807Z,22.50
2017-08-14T19:02:08.009Z,22.50
2017-08-14T19:04:36.180Z,22.50
2017-08-14T19:07:04.351Z,22.40
2017-08-14T19:09:33.435Z,22.40
2017-08-14T19:12:00.746Z,22.30
2017-08-14T19:14:29.678Z,22.20
2017-08-14T19:16:57.849Z,22.20
2017-08-14T19:19:26.021Z,22.20
2017-08-14T19:21:54.183Z,22.20
2017-08-14T19:24:22.378Z,22.20
2017-08-14T19:26:50.548Z,22.10
2017-08-14T19:29:18.724Z,22.10
2017-08-14T19:31:46.905Z,21.90
2017-08-14T19:34:15.051Z,21.90
2017-08-14T19:36:43.214Z,21.90
2017-08-14T19:39:11.390Z,21.90
2017-08-14T19:41:39.533Z,21.80
2017-08-14T19:44:07.773Z,21.70
2017-08-14T19:46:35.960Z,21.70
2017-08-14T19:49:04.123Z,21.60
2017-08-14T19:51:32.273Z,21.60
2017-08-14T19:54:00.473Z,21.60
2017-08-14T19:56:28.624Z,21.50
2017-08-14T19:58:56.775Z,21.50
2017-08-14T20:01:25.745Z,21.30
2017-08-14T20:03:53.916Z,21.30
2017-08-14T20:06:22.086Z,21.30
2017-08-14T20:08:50.282Z,21.30
2017-08-14T20:11:19.190Z,21.20
2017-08-14T20:13:48.121Z,21.20
2017-08-14T20:16:16.304Z,21.10
2017-08-14T20:18:44.474Z,21.10
2017-08-14T20:21:12.613Z,21.20
2017-08-14T20:23:40.805Z,21.10
2017-08-14T20:26:08.978Z,21.10
2017-08-14T20:28:37.145Z,21.10
2017-08-14T20:31:05.328Z,21.00
2017-08-14T20:33:33.492Z,21.00
2017-08-14T20:36:01.907Z,21.00
2017-08-14T20:38:30.097Z,21.00
2017-08-14T20:40:58.268Z,20.90
2017-08-14T20:43:26.419Z,20.90
2017-08-14T20:45:54.594Z,20.90
2017-08-14T20:48:22.745Z,20.90
2017-08-14T20:50:50.896Z,20.90
2017-08-14T20:53:19.850Z,20.90
2017-08-14T20:55:48.013Z,20.90
2017-08-14T20:58:16.167Z,20.90
2017-08-14T21:00:44.358Z,20.90
2017-08-14T21:03:12.535Z,20.90
2017-08-14T21:05:40.683Z,20.90
2017-08-14T21:08:08.881Z,20.80
2017-08-14T21:10:37.046Z,20.80
2017-08-14T21:13:05.197Z,20.70
2017-08-14T21:15:33.384Z,20.60
2017-08-14T21:18:01.550Z,20.70
2017-08-14T21:20:29.707Z,20.60
2017-08-14T21:22:58.659Z,20.60
2017-08-14T21:25:26.820Z,20.60
2017-08-14T21:27:54.988Z,20.60
2017-08-14T21:30:23.165Z,20.50
2017-08-14T21:32:51.332Z,20.50
2017-08-14T21:35:19.500Z,20.40
2017-08-14T21:37:47.675Z,20.40
2017-08-14T21:40:15.824Z,20.40
2017-08-14T21:42:44.755Z,20.30
2017-08-14T21:45:12.960Z,20.30
2017-08-14T21:47:41.115Z,20.40
2017-08-14T21:50:09.282Z,20.40
2017-08-14T21:52:37.459Z,20.40
2017-08-14T21:55:05.632Z,20.30
2017-08-14T21:57:33.796Z,20.30
2017-08-14T22:00:01.966Z,20.20
2017-08-14T22:02:30.110Z,20.30
2017-08-14T22:04:59.048Z,20.20
2017-08-14T22:07:27.225Z,20.20
2017-08-14T22:09:55.388Z,20.20
2017-08-14T22:12:23.787Z,20.20
2017-08-14T22:14:51.960Z,20.10
2017-08-14T22:17:20.110Z,20.10
2017-08-14T22:19:48.254Z,20.10
2017-08-14T22:22:17.200Z,20.00
2017-08-14T22:24:45.682Z,20.00
2017-08-14T22:27:13.826Z,20.00
2017-08-14T22:29:42.026Z,19.90
2017-08-14T22:32:10.173Z,19.90
2017-08-14T22:34:38.318Z,19.90
2017-08-14T22:37:07.285Z,19.90
2017-08-14T22:39:35.429Z,19.90
2017-08-14T22:42:03.575Z,19.90
2017-08-14T22:44:32.515Z,19.90
2017-08-14T22:47:00.660Z,19.90
2017-08-14T22:49:28.812Z,19.90
2017-08-14T22:51:57.754Z,20.00
2017-08-14T22:54:25.933Z,20.00
2017-08-14T22:56:54.078Z,20.00
2017-08-14T22:59:22.596Z,19.90
2017-08-14T23:01:50.765Z,19.90
2017-08-14T23:04:18.914Z,19.90
2017-08-14T23:06:47.100Z,19.80
2017-08-14T23:09:15.261Z,19.90
2017-08-14T23:11:43.416Z,19.80
2017-08-14T23:14:11.612Z,19.90
2017-08-14T23:16:39.777Z,19.90
2017-08-14T23:19:07.945Z,19.80
2017-08-14T23:21:36.141Z,19.80
2017-08-14T23:24:04.286Z,19.80
2017-08-14T23:26:32.451Z,19.80
2017-08-14T23:29:00.655Z,19.80
2017-08-14T23:31:28.801Z,19.70
2017-08-14T23:33:57.741Z,19.70
2017-08-14T23:36:25.928Z,19.70
2017-08-14T23:38:54.089Z,19.70
2017-08-14T23:41:22.234Z,19.70
2017-08-14T23:43:50.439Z,19.70
2017-08-14T23:46:18.627Z,19.80
2017-08-14T23:48:46.779Z,19.80
2017-08-14T23:51:14.954Z,19.80
2017-08-14T23:53:43.103Z,19.70
2017-08-14T23:56:11.265Z,19.60
2017-08-14T23:58:40.218Z,19.60
